createdAt,value
2023-02-18T00:00:09.263Z,24.28
2023-02-18T00:02:35.605Z,24.27
2023-02-18T00:05:01.989Z,24.23
2023-02-18T00:07:28.293Z,24.21
2023-02-18T00:09:54.604Z,24.20
2023-02-18T00:12:20.935Z,24.16
2023-02-18T00:14:47.251Z,24.14
2023-02-18T00:17:13.557Z,24.10
2023-02-18T00:19:40.131Z,24.13
2023-02-18T00:22:06.443Z,24.11
2023-02-18T00:24:32.758Z,24.10
2023-02-18T00:26:59.305Z,24.08
2023-02-18T00:29:25.650Z,23.99
2023-02-18T00:31:52.022Z,24.03
2023-02-18T00:34:18.440Z,24.01
2023-02-18T00:36:44.755Z,23.98
2023-02-18T00:39:11.140Z,23.97
2023-02-18T00:41:37.511Z,23.95
2023-02-18T00:44:03.997Z,23.90
2023-02-18T00:46:30.361Z,23.90
2023-02-18T00:48:56.740Z,23.88
2023-02-18T00:51:23.206Z,23.85
2023-02-18T00:53:49.629Z,23.82
2023-02-18T00:56:15.956Z,23.80
2023-02-18T00:58:42.261Z,23.77
2023-02-18T01:01:08.706Z,23.76
2023-02-18T01:03:35.750Z,23.73
2023-02-18T01:06:02.091Z,23.72
2023-02-18T01:08:28.402Z,23.63
2023-02-18T01:10:55.116Z,23.63
2023-02-18T01:13:21.556Z,23.62
2023-02-18T01:15:48.104Z,23.59
2023-02-18T01:18:14.442Z,23.56
2023-02-18T01:20:41.294Z,23.55
2023-02-18T01:23:07.843Z,23.53
2023-02-18T01:25:35.740Z,23.52
2023-02-18T01:28:02.333Z,23.49
2023-02-18T01:30:28.684Z,23.47
2023-02-18T01:32:55.735Z,23.45
2023-02-18T01:35:22.176Z,23.43
2023-02-18T01:37:48.774Z,23.42
2023-02-18T01:40:16.102Z,23.39
2023-02-18T01:42:42.402Z,23.36
2023-02-18T01:45:27.369Z,23.34
2023-02-18T01:47:53.675Z,23.31
2023-02-18T01:50:19.984Z,23.27
2023-02-18T01:52:46.299Z,23.26
2023-02-18T01:55:12.612Z,23.23
2023-02-18T01:57:38.939Z,23.20
2023-02-18T02:00:06.544Z,23.18
2023-02-18T02:02:32.912Z,23.16
2023-02-18T02:04:59.482Z,23.13
2023-02-18T02:07:25.986Z,23.10
2023-02-18T02:09:52.882Z,23.09
2023-02-18T02:12:21.894Z,23.06
2023-02-18T02:14:53.409Z,23.03
2023-02-18T02:17:19.647Z,23.03
2023-02-18T02:19:58.019Z,23.01
2023-02-18T02:22:43.279Z,23.01
2023-02-18T02:25:15.986Z,23.01
2023-02-18T02:27:54.196Z,23.00
2023-02-18T02:30:40.771Z,22.97
2023-02-18T02:33:25.974Z,22.97
2023-02-18T02:36:10.932Z,22.92
2023-02-18T02:38:50.273Z,22.92
2023-02-18T02:41:35.304Z,22.90
2023-02-18T02:44:16.727Z,22.87
2023-02-18T02:46:47.336Z,22.84
2023-02-18T02:49:28.892Z,22.82
2023-02-18T02:52:14.885Z,22.78
2023-02-18T02:54:41.235Z,22.76
2023-02-18T02:57:13.293Z,22.74
2023-02-18T02:59:40.556Z,22.73
2023-02-18T03:02:19.153Z,22.69
2023-02-18T03:04:59.691Z,22.68
2023-02-18T03:07:25.940Z,22.65
2023-02-18T03:09:59.906Z,22.63
2023-02-18T03:12:29.920Z,22.63
2023-02-18T03:15:02.820Z,22.61
2023-02-18T03:17:36.116Z,22.58
2023-02-18T03:20:10.021Z,22.58
2023-02-18T03:22:38.309Z,22.58
2023-02-18T03:25:05.082Z,22.57
2023-02-18T03:27:57.721Z,22.57
2023-02-18T03:30:33.675Z,22.55
2023-02-18T03:33:00.899Z,22.53
2023-02-18T03:35:27.260Z,22.51
2023-02-18T03:38:04.398Z,22.52
2023-02-18T03:40:30.710Z,22.50
2023-02-18T03:42:57.611Z,22.49
2023-02-18T03:45:24.099Z,22.45
2023-02-18T03:47:50.669Z,22.44
2023-02-18T03:50:17.062Z,22.42
2023-02-18T03:52:43.388Z,22.40
2023-02-18T03:55:09.735Z,22.38
2023-02-18T03:57:36.111Z,22.32
2023-02-18T04:00:02.433Z,22.35
2023-02-18T04:02:28.780Z,22.34
2023-02-18T04:04:55.094Z,22.33
2023-02-18T04:07:21.443Z,22.31
2023-02-18T04:09:47.756Z,22.28
2023-02-18T04:12:14.087Z,22.24
2023-02-18T04:14:40.627Z,22.19
2023-02-18T04:17:07.009Z,22.19
2023-02-18T04:19:33.324Z,22.19
2023-02-18T04:21:59.652Z,22.18
2023-02-18T04:24:25.958Z,22.19
2023-02-18T04:26:52.279Z,22.19
2023-02-18T04:29:18.589Z,22.18
2023-02-18T04:31:44.999Z,22.16
2023-02-18T04:34:11.343Z,22.16
2023-02-18T04:36:37.676Z,22.14
2023-02-18T04:39:03.997Z,22.12
2023-02-18T04:41:30.318Z,22.12
2023-02-18T04:43:56.680Z,22.10
2023-02-18T04:46:23.061Z,22.06
2023-02-18T04:48:49.431Z,22.05
2023-02-18T04:51:15.746Z,22.04
2023-02-18T04:53:42.072Z,22.01
2023-02-18T04:56:08.803Z,22.00
2023-02-18T04:58:35.244Z,21.99
2023-02-18T05:01:02.075Z,21.97
2023-02-18T05:03:28.686Z,21.95
2023-02-18T05:05:55.001Z,21.95
2023-02-18T05:08:21.334Z,21.93
2023-02-18T05:10:47.656Z,21.91
2023-02-18T05:13:14.307Z,21.87
2023-02-18T05:15:40.663Z,21.88
2023-02-18T05:18:07.776Z,21.87
2023-02-18T05:20:34.099Z,21.87
2023-02-18T05:23:00.441Z,21.88
2023-02-18T05:25:26.995Z,21.87
2023-02-18T05:27:53.316Z,21.88
2023-02-18T05:30:19.706Z,21.86
2023-02-18T05:32:46.062Z,21.85
2023-02-18T05:35:13.588Z,21.85
2023-02-18T05:37:39.927Z,21.84
2023-02-18T05:40:06.489Z,21.81
2023-02-18T05:42:33.031Z,21.81
2023-02-18T05:44:59.352Z,21.76
2023-02-18T05:47:25.677Z,21.75
2023-02-18T05:49:52.001Z,21.73
2023-02-18T05:52:18.358Z,21.71
2023-02-18T05:54:44.848Z,21.69
2023-02-18T05:57:11.326Z,21.68
2023-02-18T05:59:37.630Z,21.67
2023-02-18T06:02:03.975Z,21.67
2023-02-18T06:04:30.301Z,21.76
2023-02-18T06:06:56.655Z,21.91
2023-02-18T06:09:22.971Z,21.97
2023-02-18T06:11:49.277Z,22.05
2023-02-18T06:14:15.632Z,22.09
2023-02-18T06:16:41.954Z,22.13
2023-02-18T06:19:08.316Z,22.17
2023-02-18T06:21:34.628Z,22.18
2023-02-18T06:24:00.935Z,22.18
2023-02-18T06:26:27.251Z,22.20
2023-02-18T06:28:53.567Z,22.18
2023-02-18T06:31:19.938Z,22.20
2023-02-18T06:33:46.324Z,22.18
2023-02-18T06:36:12.724Z,22.18
2023-02-18T06:38:39.751Z,22.20
2023-02-18T06:41:06.351Z,22.24
2023-02-18T06:43:32.674Z,22.28
2023-02-18T06:45:59.000Z,22.33
2023-02-18T06:48:25.330Z,22.34
2023-02-18T06:50:51.656Z,22.34
2023-02-18T06:53:18.092Z,22.34
2023-02-18T06:55:44.821Z,22.34
2023-02-18T06:58:11.168Z,22.33
2023-02-18T07:00:37.575Z,22.33
2023-02-18T07:03:04.094Z,22.30
2023-02-18T07:05:30.409Z,22.29
2023-02-18T07:07:56.747Z,22.30
2023-02-18T07:10:23.116Z,22.30
2023-02-18T07:12:49.438Z,22.28
2023-02-18T07:15:15.738Z,22.27
2023-02-18T07:17:42.061Z,22.32
2023-02-18T07:20:08.617Z,22.35
2023-02-18T07:22:34.943Z,22.38
2023-02-18T07:25:01.521Z,22.39
2023-02-18T07:27:27.894Z,22.38
2023-02-18T07:29:54.266Z,22.39
2023-02-18T07:32:20.613Z,22.41
2023-02-18T07:34:46.929Z,22.38
2023-02-18T07:37:13.245Z,22.39
2023-02-18T07:39:40.032Z,22.38
2023-02-18T07:42:06.355Z,22.37
2023-02-18T07:44:32.668Z,22.35
2023-02-18T07:46:59.721Z,22.38
2023-02-18T07:49:26.076Z,22.43
2023-02-18T07:51:52.380Z,22.48
2023-02-18T07:54:18.926Z,22.50
2023-02-18T07:56:45.414Z,22.50
2023-02-18T07:59:11.933Z,22.51
2023-02-18T08:01:38.341Z,22.50
2023-02-18T08:04:04.707Z,22.49
2023-02-18T08:06:31.797Z,22.48
2023-02-18T08:08:58.122Z,22.48
2023-02-18T08:11:24.484Z,22.49
2023-02-18T08:13:50.818Z,22.48
2023-02-18T08:16:17.487Z,22.47
2023-02-18T08:18:43.857Z,22.55
2023-02-18T08:21:10.176Z,22.58
2023-02-18T08:23:36.494Z,22.67
2023-02-18T08:26:02.801Z,22.72
2023-02-18T08:28:29.129Z,22.75
2023-02-18T08:30:55.480Z,22.77
2023-02-18T08:33:22.069Z,22.82
2023-02-18T08:35:48.491Z,22.87
2023-02-18T08:38:14.852Z,22.98
2023-02-18T08:40:41.574Z,22.91
2023-02-18T08:43:07.948Z,22.91
2023-02-18T08:45:36.047Z,22.89
2023-02-18T08:48:18.862Z,22.88
2023-02-18T08:50:47.120Z,22.73
2023-02-18T08:53:13.456Z,22.67
2023-02-18T08:55:40.246Z,22.71
2023-02-18T08:58:06.810Z,22.79
2023-02-18T09:00:33.189Z,22.83
2023-02-18T09:03:00.013Z,22.83
2023-02-18T09:05:26.344Z,22.83
2023-02-18T09:07:52.664Z,22.81
2023-02-18T09:10:18.978Z,22.82
2023-02-18T09:12:45.291Z,22.78
2023-02-18T09:15:11.606Z,22.77
2023-02-18T09:17:37.921Z,22.73
2023-02-18T09:20:04.483Z,22.71
2023-02-18T09:22:32.610Z,22.71
2023-02-18T09:24:58.931Z,22.70
2023-02-18T09:27:25.238Z,22.70
2023-02-18T09:29:51.619Z,22.68
2023-02-18T09:32:32.512Z,22.68
2023-02-18T09:35:00.472Z,22.70
2023-02-18T09:37:26.793Z,22.73
2023-02-18T09:39:53.120Z,22.73
2023-02-18T09:42:19.459Z,22.72
2023-02-18T09:44:55.697Z,22.70
2023-02-18T09:47:27.136Z,22.70
2023-02-18T09:49:54.678Z,22.67
2023-02-18T09:52:23.746Z,22.65
2023-02-18T09:54:50.322Z,22.66
2023-02-18T09:57:39.900Z,22.71
2023-02-18T10:00:07.577Z,22.78
2023-02-18T10:02:33.897Z,22.87
2023-02-18T10:05:00.228Z,22.87
2023-02-18T10:07:30.541Z,22.97
2023-02-18T10:09:57.098Z,23.00
2023-02-18T10:12:24.554Z,22.99
2023-02-18T10:14:54.921Z,22.99
2023-02-18T10:17:21.647Z,22.98
2023-02-18T10:19:48.074Z,22.97
2023-02-18T10:22:15.146Z,22.97
2023-02-18T10:24:42.824Z,22.97
2023-02-18T10:27:09.233Z,22.96
2023-02-18T10:29:35.604Z,22.95
2023-02-18T10:32:16.086Z,22.95
2023-02-18T10:34:43.237Z,22.95
2023-02-18T10:37:23.783Z,22.92
2023-02-18T10:40:08.451Z,22.88
2023-02-18T10:42:45.274Z,22.84
2023-02-18T10:45:30.145Z,22.86
2023-02-18T10:48:04.489Z,22.84
2023-02-18T10:50:32.145Z,22.80
2023-02-18T10:53:02.334Z,22.77
2023-02-18T10:55:38.599Z,22.74
2023-02-18T10:58:06.576Z,22.74
2023-02-18T11:00:36.423Z,22.68
2023-02-18T11:03:24.598Z,22.66
2023-02-18T11:05:51.899Z,22.74
2023-02-18T11:08:19.415Z,22.83
2023-02-18T11:10:46.128Z,22.89
2023-02-18T11:13:13.346Z,22.93
2023-02-18T11:15:39.678Z,22.96
2023-02-18T11:18:24.779Z,22.98
2023-02-18T11:20:58.460Z,22.90
2023-02-18T11:23:25.657Z,22.90
2023-02-18T11:26:04.869Z,22.85
2023-02-18T11:28:33.549Z,22.84
2023-02-18T11:31:00.434Z,22.84
2023-02-18T11:33:38.062Z,22.82
2023-02-18T11:36:13.354Z,22.79
2023-02-18T11:39:07.347Z,22.78
2023-02-18T11:41:37.657Z,22.84
2023-02-18T11:44:04.968Z,22.86
2023-02-18T11:46:31.370Z,22.90
2023-02-18T11:48:57.793Z,22.88
2023-02-18T11:51:28.190Z,22.85
2023-02-18T11:54:13.384Z,22.84
2023-02-18T11:56:39.694Z,22.84
2023-02-18T11:59:07.045Z,22.83
2023-02-18T12:01:43.969Z,22.79
2023-02-18T12:04:14.410Z,22.85
2023-02-18T12:06:54.883Z,22.97
2023-02-18T12:09:27.644Z,23.07
2023-02-18T12:11:55.369Z,23.16
2023-02-18T12:14:22.156Z,23.10
2023-02-18T12:16:54.815Z,23.12
2023-02-18T12:19:41.169Z,23.06
2023-02-18T12:22:13.488Z,22.98
2023-02-18T12:24:42.888Z,22.94
2023-02-18T12:27:09.910Z,23.04
2023-02-18T12:30:06.112Z,23.12
2023-02-18T12:32:35.372Z,23.12
2023-02-18T12:35:04.406Z,23.16
2023-02-18T12:37:30.656Z,23.15
2023-02-18T12:40:15.066Z,23.13
2023-02-18T12:42:47.553Z,23.06
2023-02-18T12:45:34.995Z,23.05
2023-02-18T12:48:01.253Z,23.02
2023-02-18T12:50:46.173Z,23.02
2023-02-18T12:53:19.447Z,23.00
2023-02-18T12:55:45.756Z,22.98
2023-02-18T12:58:30.808Z,22.96
2023-02-18T13:01:02.952Z,22.93
2023-02-18T13:03:38.036Z,22.95
2023-02-18T13:06:24.301Z,22.90
2023-02-18T13:09:13.827Z,22.86
2023-02-18T13:11:40.062Z,22.88
2023-02-18T13:14:09.416Z,22.95
2023-02-18T13:16:35.982Z,23.02
2023-02-18T13:19:03.614Z,23.10
2023-02-18T13:21:30.047Z,23.10
2023-02-18T13:24:06.804Z,23.19
2023-02-18T13:26:33.486Z,23.23
2023-02-18T13:29:08.933Z,23.17
2023-02-18T13:31:55.538Z,23.16
2023-02-18T13:34:57.588Z,23.14
2023-02-18T13:37:31.226Z,23.11
2023-02-18T13:39:57.623Z,23.09
2023-02-18T13:42:25.007Z,23.09
2023-02-18T13:44:54.448Z,23.08
2023-02-18T13:47:39.529Z,23.07
2023-02-18T13:50:27.313Z,23.05
2023-02-18T13:52:59.923Z,23.05
2023-02-18T13:55:27.751Z,23.03
2023-02-18T13:57:54.877Z,23.03
2023-02-18T14:00:22.247Z,23.04
2023-02-18T14:02:59.141Z,23.07
2023-02-18T14:05:25.642Z,23.05
2023-02-18T14:07:52.556Z,23.03
2023-02-18T14:10:18.848Z,23.02
2023-02-18T14:12:57.889Z,23.00
2023-02-18T14:15:24.299Z,22.94
2023-02-18T14:18:10.896Z,22.91
2023-02-18T14:20:37.173Z,22.96
2023-02-18T14:23:18.795Z,23.01
2023-02-18T14:26:04.047Z,23.08
2023-02-18T14:28:33.290Z,23.12
2023-02-18T14:31:12.528Z,23.11
2023-02-18T14:33:42.669Z,23.11
2023-02-18T14:36:22.613Z,23.13
2023-02-18T14:39:02.909Z,23.10
2023-02-18T14:41:40.892Z,23.10
2023-02-18T14:44:19.404Z,23.09
2023-02-18T14:46:57.666Z,23.07
2023-02-18T14:49:23.898Z,23.06
2023-02-18T14:51:50.214Z,23.07
2023-02-18T14:54:18.260Z,23.05
2023-02-18T14:57:04.891Z,23.05
2023-02-18T14:59:32.275Z,23.04
2023-02-18T15:01:58.626Z,23.04
2023-02-18T15:04:25.216Z,23.04
2023-02-18T15:06:58.344Z,23.02
2023-02-18T15:09:24.959Z,23.01
2023-02-18T15:11:52.210Z,22.99
2023-02-18T15:14:20.074Z,22.96
2023-02-18T15:16:46.458Z,22.92
2023-02-18T15:19:13.678Z,22.90
2023-02-18T15:21:41.153Z,22.87
2023-02-18T15:24:13.631Z,22.83
2023-02-18T15:26:43.268Z,22.83
2023-02-18T15:29:14.747Z,22.83
2023-02-18T15:31:41.163Z,22.90
2023-02-18T15:34:26.196Z,22.95
2023-02-18T15:36:52.622Z,23.01
2023-02-18T15:39:18.937Z,23.06
2023-02-18T15:41:45.263Z,23.06
2023-02-18T15:44:22.175Z,23.07
2023-02-18T15:46:48.550Z,23.05
2023-02-18T15:49:15.567Z,23.04
2023-02-18T15:51:42.253Z,23.04
2023-02-18T15:54:12.162Z,23.06
2023-02-18T15:56:42.277Z,23.04
2023-02-18T15:59:09.031Z,23.03
2023-02-18T16:01:35.365Z,23.01
2023-02-18T16:04:01.704Z,23.04
2023-02-18T16:06:28.896Z,23.03
2023-02-18T16:09:18.373Z,23.01
2023-02-18T16:11:45.626Z,23.00
2023-02-18T16:14:30.824Z,22.99
2023-02-18T16:17:06.705Z,22.96
2023-02-18T16:19:34.006Z,22.92
2023-02-18T16:22:04.245Z,22.90
2023-02-18T16:24:32.931Z,22.88
2023-02-18T16:27:00.094Z,22.87
2023-02-18T16:29:27.248Z,22.94
2023-02-18T16:31:53.724Z,22.95
2023-02-18T16:34:20.608Z,22.91
2023-02-18T16:37:05.534Z,22.93
2023-02-18T16:39:33.118Z,22.99
2023-02-18T16:41:59.445Z,23.07
2023-02-18T16:44:25.758Z,23.15
2023-02-18T16:46:52.085Z,23.34
2023-02-18T16:49:18.531Z,23.56
2023-02-18T16:51:44.937Z,23.56
2023-02-18T16:54:14.303Z,23.68
2023-02-18T16:56:40.737Z,23.79
2023-02-18T16:59:07.103Z,23.77
2023-02-18T17:01:38.193Z,23.75
2023-02-18T17:04:05.580Z,23.72
2023-02-18T17:06:32.029Z,23.65
2023-02-18T17:08:58.684Z,23.56
2023-02-18T17:11:26.007Z,23.54
2023-02-18T17:13:53.040Z,23.53
2023-02-18T17:16:19.380Z,23.49
2023-02-18T17:18:45.804Z,23.51
2023-02-18T17:21:13.091Z,23.51
2023-02-18T17:23:39.395Z,23.60
2023-02-18T17:26:05.844Z,23.57
2023-02-18T17:28:32.154Z,23.53
2023-02-18T17:30:58.568Z,23.52
2023-02-18T17:33:25.206Z,23.51
2023-02-18T17:35:51.524Z,23.48
2023-02-18T17:38:18.138Z,23.47
2023-02-18T17:40:44.653Z,23.46
2023-02-18T17:43:12.387Z,23.52
2023-02-18T17:45:45.702Z,23.53
2023-02-18T17:48:12.017Z,23.56
2023-02-18T17:50:38.337Z,23.63
2023-02-18T17:53:04.824Z,23.72
2023-02-18T17:55:31.649Z,23.74
2023-02-18T17:57:58.283Z,23.77
2023-02-18T18:00:26.698Z,23.77
2023-02-18T18:02:53.091Z,23.75
2023-02-18T18:05:25.462Z,23.73
2023-02-18T18:07:51.899Z,23.68
2023-02-18T18:10:18.928Z,23.68
2023-02-18T18:12:45.250Z,23.68
2023-02-18T18:15:18.365Z,23.70
2023-02-18T18:17:44.878Z,23.68
2023-02-18T18:20:11.240Z,23.69
2023-02-18T18:22:37.559Z,23.69
2023-02-18T18:25:10.494Z,23.70
2023-02-18T18:27:36.825Z,23.72
2023-02-18T18:30:04.911Z,23.79
2023-02-18T18:32:31.278Z,23.85
2023-02-18T18:34:57.588Z,23.93
2023-02-18T18:37:23.921Z,23.96
2023-02-18T18:39:50.236Z,24.00
2023-02-18T18:42:16.581Z,24.00
2023-02-18T18:44:42.890Z,23.96
2023-02-18T18:47:09.232Z,24.00
2023-02-18T18:49:35.566Z,23.90
2023-02-18T18:52:01.914Z,23.83
2023-02-18T18:54:28.260Z,23.84
2023-02-18T18:56:54.971Z,23.85
2023-02-18T18:59:21.278Z,23.76
2023-02-18T19:01:47.608Z,23.77
2023-02-18T19:04:14.264Z,23.73
2023-02-18T19:06:40.622Z,23.67
2023-02-18T19:09:06.931Z,23.64
2023-02-18T19:11:33.248Z,23.63
2023-02-18T19:13:59.563Z,23.60
2023-02-18T19:16:27.878Z,23.58
2023-02-18T19:18:54.318Z,23.55
2023-02-18T19:21:20.643Z,23.53
2023-02-18T19:23:47.051Z,23.55
2023-02-18T19:26:13.367Z,23.55
2023-02-18T19:28:39.683Z,23.55
2023-02-18T19:31:09.759Z,23.53
2023-02-18T19:33:37.002Z,23.51
2023-02-18T19:36:07.650Z,23.49
2023-02-18T19:38:43.272Z,23.45
2023-02-18T19:41:12.160Z,23.49
2023-02-18T19:43:38.848Z,23.46
2023-02-18T19:46:11.569Z,23.42
2023-02-18T19:48:38.005Z,23.38
2023-02-18T19:51:04.469Z,23.37
2023-02-18T19:53:30.807Z,23.35
2023-02-18T19:56:02.352Z,23.24
2023-02-18T19:58:28.915Z,23.31
2023-02-18T20:00:55.261Z,23.34
2023-02-18T20:03:21.574Z,23.44
2023-02-18T20:05:47.881Z,23.60
2023-02-18T20:08:14.334Z,23.71
2023-02-18T20:10:40.642Z,23.77
2023-02-18T20:13:11.213Z,23.79
2023-02-18T20:15:40.665Z,23.79
2023-02-18T20:18:07.165Z,23.75
2023-02-18T20:20:33.474Z,23.74
2023-02-18T20:22:59.807Z,23.73
2023-02-18T20:25:27.654Z,23.74
2023-02-18T20:28:00.837Z,23.75
2023-02-18T20:30:27.738Z,23.73
2023-02-18T20:32:54.118Z,23.77
2023-02-18T20:35:20.445Z,23.73
2023-02-18T20:37:47.058Z,23.70
2023-02-18T20:40:13.418Z,23.74
2023-02-18T20:42:41.889Z,23.69
2023-02-18T20:45:08.756Z,23.66
2023-02-18T20:47:35.091Z,23.65
2023-02-18T20:50:01.410Z,23.66
2023-02-18T20:52:27.953Z,23.62
2023-02-18T20:54:54.654Z,23.61
2023-02-18T20:57:21.236Z,23.59
2023-02-18T20:59:47.552Z,23.58
2023-02-18T21:02:13.976Z,23.52
2023-02-18T21:04:40.296Z,23.48
2023-02-18T21:07:06.853Z,23.46
2023-02-18T21:09:33.166Z,23.43
2023-02-18T21:11:59.490Z,23.42
2023-02-18T21:14:25.912Z,23.39
2023-02-18T21:16:52.255Z,23.37
2023-02-18T21:19:27.707Z,23.36
2023-02-18T21:21:54.027Z,23.35
2023-02-18T21:24:20.383Z,23.35
2023-02-18T21:26:46.715Z,23.33
2023-02-18T21:29:13.049Z,23.30
2023-02-18T21:31:40.160Z,23.26
2023-02-18T21:34:06.919Z,23.24
2023-02-18T21:36:33.260Z,23.22
2023-02-18T21:39:00.715Z,23.22
2023-02-18T21:41:27.204Z,23.21
2023-02-18T21:43:53.626Z,23.23
2023-02-18T21:46:23.586Z,23.19
2023-02-18T21:49:02.113Z,23.17
2023-02-18T21:51:47.700Z,23.15
2023-02-18T21:54:20.823Z,23.13
2023-02-18T21:56:47.188Z,23.16
2023-02-18T21:59:13.534Z,23.15
2023-02-18T22:01:41.079Z,23.12
2023-02-18T22:04:07.454Z,23.11
2023-02-18T22:06:33.779Z,23.09
2023-02-18T22:09:01.029Z,23.07
2023-02-18T22:11:27.674Z,23.04
2023-02-18T22:13:54.007Z,23.04
2023-02-18T22:16:20.393Z,22.98
2023-02-18T22:18:46.737Z,22.97
2023-02-18T22:21:13.208Z,22.98
2023-02-18T22:23:39.636Z,22.92
2023-02-18T22:26:06.393Z,22.89
2023-02-18T22:28:32.916Z,22.89
2023-02-18T22:30:59.303Z,22.85
2023-02-18T22:33:26.095Z,22.84
2023-02-18T22:35:52.445Z,22.86
2023-02-18T22:38:18.858Z,22.86
2023-02-18T22:40:45.204Z,22.91
2023-02-18T22:43:11.564Z,23.03
2023-02-18T22:45:37.941Z,23.13
2023-02-18T22:48:04.355Z,23.23
2023-02-18T22:50:30.702Z,23.34
2023-02-18T22:52:57.318Z,23.50
2023-02-18T22:55:23.622Z,23.61
2023-02-18T22:57:49.943Z,23.68
2023-02-18T23:00:16.281Z,23.84
2023-02-18T23:02:42.606Z,23.95
2023-02-18T23:05:08.986Z,24.05
2023-02-18T23:07:35.789Z,24.07
2023-02-18T23:10:02.114Z,24.07
2023-02-18T23:12:28.647Z,24.07
2023-02-18T23:14:54.951Z,24.06
2023-02-18T23:17:21.315Z,23.98
2023-02-18T23:19:47.553Z,23.90
2023-02-18T23:22:14.670Z,23.84
2023-02-18T23:24:41.569Z,23.82
2023-02-18T23:27:08.668Z,23.94
2023-02-18T23:29:34.988Z,23.93
2023-02-18T23:32:01.461Z,23.91
2023-02-18T23:34:28.564Z,23.89
2023-02-18T23:36:54.985Z,23.85
2023-02-18T23:39:21.600Z,23.83
2023-02-18T23:41:47.934Z,23.79
2023-02-18T23:44:15.199Z,23.78
2023-02-18T23:46:41.617Z,23.72
2023-02-18T23:49:08.045Z,23.67
2023-02-18T23:51:34.371Z,23.65
2023-02-18T23:54:01.919Z,23.62
2023-02-18T23:56:28.422Z,23.58
2023-02-18T23:58:57.244Z,23.56
